Flight Track Log - Related Links

Times and Time Zones

All times are in EDT time to prevent confusion due to time zone crossing. See the N271LD flight status page for this flight to view local times or setup timezone preferences in your user account.

Time Position Orientation Groundspeed Altitude Reporting Facility
EDT Latitude Longitude Course Direction KTS MPH feet Rate Location/Type
Mon 03:17:57 PM 42.6000 -87.9000 360° North 126 145 1,200  Level KMKE
Mon 03:18:45 PM 42.6167 -87.9000 360° North 118 136 2,200 944 Climbing KMKE
Mon 03:19:45 PM 42.6167 -87.9500 270° West 151 174 2,900 645 Climbing KMKE
Mon 03:20:18 PM 42.6264 -87.9747 298° West 143 165 3,200 695 Climbing Chicago Center
Mon 03:21:20 PM 42.6481 -88.0244 301° West 153 176 4,000 387 Climbing Chicago Center
Mon 03:22:22 PM 42.6733 -88.0858 299° West 153 176 4,000  Level Chicago Center
Mon 03:23:25 PM 42.6950 -88.1381 299° West 156 180 4,000  Level Chicago Center
Mon 03:24:27 PM 42.7164 -88.1894 300° West 157 181 4,000  Level Chicago Center
Mon 03:25:29 PM 42.7364 -88.2389 299° West 154 177 4,000  Level Chicago Center
Mon 03:26:31 PM 42.7594 -88.2883 302° West 153 176 4,000  Level Chicago Center
Mon 03:27:33 PM 42.7811 -88.3392 300° West 155 178 4,000  Level Chicago Center
Mon 03:28:35 PM 42.8017 -88.4003 295° West 151 174 4,000  Level Chicago Center
Mon 03:29:37 PM 42.8214 -88.4522 295° West 152 175 4,000 -48 Level Chicago Center
Mon 03:30:39 PM 42.8417 -88.5011 300° West 151 174 3,900 -48 Descending Chicago Center
Mon 03:31:41 PM 42.8617 -88.5514 299° West 150 173 3,900 97 Level Chicago Center
Mon 03:32:43 PM 42.8817 -88.6017 299° West 150 173 4,100 96 Climbing Chicago Center
Mon 03:33:46 PM 42.9003 -88.6514 297° West 149 171 4,100  Level Chicago Center
Mon 03:34:48 PM 42.9244 -88.7114 299° West 149 171 4,100  Level Chicago Center
Mon 03:35:50 PM 42.9439 -88.7608 298° West 149 171 4,100  Level Chicago Center
Mon 03:36:52 PM 42.9636 -88.8108 298° West 149 171 4,100 -48 Level Chicago Center
Mon 03:37:54 PM 42.9831 -88.8606 298° West 149 171 4,000 -48 Descending Chicago Center
Mon 03:38:56 PM 43.0028 -88.9114 298° West 150 173 4,000  Level Chicago Center
Mon 03:39:58 PM 43.0231 -88.9639 298° West 152 175 4,000  Level Chicago Center
Mon 03:41:00 PM 43.0475 -89.0233 299° West 152 175 4,000  Level Chicago Center
Mon 03:42:02 PM 43.0664 -89.0747 297° West 151 174 4,000  Level Chicago Center
Mon 03:43:04 PM 43.0861 -89.1250 298° West 151 174 4,000  Level Chicago Center
Mon 03:44:07 PM 43.1053 -89.1753 298° West 150 173 4,000  Level Chicago Center
Mon 03:45:09 PM 43.1256 -89.2269 298° West 151 174 4,000  Level Chicago Center
Mon 03:46:11 PM 43.1456 -89.2772 299° West 151 174 4,000  Level Chicago Center
Mon 03:47:13 PM 43.1689 -89.3392 297° West 152 175 4,000  Level Chicago Center
Mon 03:48:15 PM 43.1886 -89.3908 298° West 153 176 4,000  Level Chicago Center
Mon 03:49:17 PM 43.2086 -89.4425 298° West 153 176 4,000  Level Chicago Center
Mon 03:50:19 PM 43.2278 -89.4931 298° West 152 175 4,000  Level Chicago Center
Mon 03:51:21 PM 43.2469 -89.5453 297° West 152 175 4,000  Level Chicago Center
Mon 03:52:23 PM 43.2667 -89.5953 298° West 151 174 4,000  Level Chicago Center
Mon 03:53:25 PM 43.2886 -89.6553 297° West 150 173 4,000  Level Chicago Center
Mon 03:54:28 PM 43.3086 -89.7061 298° West 149 171 4,000  Level Chicago Center
Mon 03:55:30 PM 43.3289 -89.7583 298° West 152 175 4,000  Level Chicago Center
Mon 03:56:32 PM 43.3483 -89.8092 298° West 152 175 4,000  Level Chicago Center
Mon 03:57:34 PM 43.3681 -89.8608 298° West 152 175 4,000  Level Chicago Center
Mon 03:58:36 PM 43.3875 -89.9128 297° West 152 175 4,000 48 Level Chicago Center
Mon 03:59:38 PM 43.4108 -89.9747 297° West 153 176 4,100 48 Climbing Chicago Center
Mon 04:00:40 PM 43.4292 -90.0269 296° West 152 175 4,100  Level Chicago Center
Mon 04:01:42 PM 43.4494 -90.0792 298° West 153 176 4,100  Level Chicago Center
Mon 04:02:44 PM 43.4681 -90.1311 296° West 153 176 4,100  Level Chicago Center
Mon 04:03:46 PM 43.4883 -90.1831 298° West 153 176 4,100  Level Chicago Center
Mon 04:04:48 PM 43.5067 -90.2356 296° West 152 175 4,100 -97 Level Chicago Center
Mon 04:05:50 PM 43.5261 -90.2889 297° West 152 175 3,900 -96 Descending Chicago Center
Mon 04:06:53 PM 43.5500 -90.3514 298° West 154 177 3,900  Level Chicago Center
Mon 04:07:56 PM 43.5703 -90.4033 298° West 155 178 3,900  Level Chicago Center
Mon 04:08:57 PM 43.5917 -90.4578 298° West 158 182 3,900 49 Level Chicago Center
Mon 04:09:59 PM 43.6111 -90.5128 296° West 160 184 4,000  Climbing Chicago Center
Mon 04:11:01 PM 43.6306 -90.5656 297° West 159 183 3,900 -48 Descending Chicago Center
Mon 04:12:03 PM 43.6542 -90.6303 297° West 159 183 3,900  Level Chicago Center
Mon 04:13:28 PM 43.6800 -90.7011 297° West 154 177 3,900  Level Minneapolis Center
Mon 04:14:30 PM 43.6997 -90.7569 296° West 153 176 3,900  Level Minneapolis Center
Mon 04:15:32 PM 43.7211 -90.8128 298° West 157 181 3,900  Level Minneapolis Center
Mon 04:16:34 PM 43.7586 -90.8381 334° Northwest 155 178 3,900  Level Minneapolis Center
Mon 04:17:35 PM 43.7989 -90.8658 334° Northwest 153 176 3,900  Level Minneapolis Center
Mon 04:18:37 PM 43.8392 -90.8936 334° Northwest 155 178 3,900  Level Minneapolis Center
Mon 04:19:39 PM 43.8797 -90.9225 333° Northwest 156 180 3,900  Level Minneapolis Center
Mon 04:20:41 PM 43.9181 -90.9489 334° Northwest 159 183 3,900 49 Level Minneapolis Center
Mon 04:21:42 PM 43.9586 -90.9775 333° Northwest 157 181 4,000 49 Climbing Minneapolis Center
Mon 04:22:44 PM 43.9928 -91.0192 319° Northwest 157 181 4,000 -48 Level Minneapolis Center
Mon 04:23:46 PM 44.0222 -91.0686 310° West 158 182 3,900  Descending Minneapolis Center
Mon 04:24:48 PM 44.0406 -91.1217 296° West 149 171 4,000 49 Climbing Minneapolis Center
Mon 04:25:49 PM 44.0567 -91.1672 296° West 140 161 4,000 -195 Level Minneapolis Center
Mon 04:26:51 PM 44.0631 -91.2225 279° West 138 159 3,600 -242 Descending Minneapolis Center
Mon 04:27:53 PM 44.0658 -91.2792 274° West 142 163 3,500 -97 Descending Minneapolis Center
Mon 04:28:55 PM 44.0594 -91.3294 260° West 127 146 3,400 -48 Descending Minneapolis Center
Mon 04:29:57 PM 44.0447 -91.3728 245° Southwest 118 136 3,400  Level Minneapolis Center
Mon 04:30:59 PM 44.0178 -91.3894 204° Southwest 110 127 3,400 -242 Level Minneapolis Center
Mon 04:32:01 PM 43.9850 -91.3719 159° South 128 147 2,900 -484 Descending Minneapolis Center
Mon 04:33:03 PM 43.9567 -91.3522 153° Southeast 130 150 2,400 -484 Descending Minneapolis Center
Mon 04:35:00 PM 43.8962 -91.2835 141° Southeast  Level FlightAware Approximate

Login

Don't have an account? Register now (free) for customized features, flight alerts, and more!